Time;durP1;ratioP1;P1;durP2;ratioP2;P2;SDS_P1;SDS_P2;PMS_P1;PMS_P2;Temp;Humidity;BMP_temperature;BMP_pressure;BME280_temperature;BME280_humidity;BME280_pressure;Samples;Min_cycle;Max_cycle;Signal;HPM_P1;HPM_P2
2023/03/16 00:00:12;;;;;;;;;12.00;8.20;;;;;-0.29;82.80;99216.94;5046516;28;8860;-81
2023/03/16 00:03:02;;;;;;;;;12.00;9.80;;;;;-0.31;82.66;99222.94;5047767;28;9622;-79
2023/03/16 00:05:31;;;;;;;;;9.20;7.80;;;;;0.00;81.42;99223.47;5047536;28;8868;-80
2023/03/16 00:08:00;;;;;;;;;6.00;5.60;;;;;-0.37;81.92;99222.84;5050336;28;8899;-79
2023/03/16 00:10:29;;;;;;;;;11.00;8.00;;;;;-0.47;82.20;99223.50;5083535;28;8881;-79
2023/03/16 00:12:58;;;;;;;;;9.60;7.80;;;;;-0.25;81.30;99217.03;5063402;28;8914;-80
2023/03/16 00:15:28;;;;;;;;;6.80;6.80;;;;;-0.16;82.47;99221.50;5046709;28;8863;-79
2023/03/16 00:17:57;;;;;;;;;9.80;9.80;;;;;-0.26;81.40;99223.00;5046841;28;8990;-80
2023/03/16 00:20:26;;;;;;;;;11.00;9.40;;;;;0.08;81.83;99228.75;5031043;28;8894;-80
2023/03/16 00:22:56;;;;;;;;;9.00;7.80;;;;;0.25;80.73;99229.03;5029816;28;8898;-79
2023/03/16 00:25:25;;;;;;;;;8.20;7.40;;;;;0.20;80.51;99247.06;5012347;28;8851;-79
2023/03/16 00:27:54;;;;;;;;;10.40;10.20;;;;;0.04;81.27;99227.84;5046608;28;8925;-80
2023/03/16 00:30:23;;;;;;;;;13.60;8.80;;;;;0.25;79.89;99223.84;5047338;28;8863;-81
2023/03/16 00:32:54;;;;;;;;;9.40;5.20;;;;;0.10;80.63;99240.00;5069009;28;8853;-81
2023/03/16 00:35:23;;;;;;;;;6.60;5.80;;;;;0.07;80.60;99237.38;5083189;28;8872;-81
2023/03/16 00:37:56;;;;;;;;;10.60;10.60;;;;;0.23;80.67;99236.75;5049513;28;8987;-78
2023/03/16 00:40:26;;;;;;;;;7.20;7.20;;;;;0.11;80.87;99248.63;5032227;28;8837;-79
2023/03/16 00:42:55;;;;;;;;;8.80;7.20;;;;;-0.01;81.21;99241.53;5032960;28;8891;-79
2023/03/16 00:45:24;;;;;;;;;6.60;6.60;;;;;0.26;79.58;99251.47;5050564;28;8865;-78
2023/03/16 00:47:54;;;;;;;;;7.20;4.40;;;;;0.10;80.36;99236.53;5048945;28;8857;-78
2023/03/16 00:50:23;;;;;;;;;5.40;4.80;;;;;0.39;78.64;99232.72;5065167;28;8864;-80
2023/03/16 00:52:52;;;;;;;;;8.60;6.60;;;;;0.59;78.49;99242.47;5052074;28;9662;-79
2023/03/16 00:55:21;;;;;;;;;7.20;6.60;;;;;0.63;77.56;99239.06;5048345;28;8932;-80
2023/03/16 00:57:50;;;;;;;;;4.00;4.00;;;;;0.36;78.73;99236.97;5049593;28;8958;-80
2023/03/16 01:00:20;;;;;;;;;7.00;7.00;;;;;-0.05;78.09;99247.50;5027754;28;9645;-79
2023/03/16 01:02:49;;;;;;;;;7.60;5.40;;;;;-0.12;79.49;99254.28;4995935;28;8886;-79
2023/03/16 01:05:21;;;;;;;;;6.60;4.00;;;;;0.04;79.00;99255.41;5044600;28;8864;-79
2023/03/16 01:07:52;;;;;;;;;4.20;4.20;;;;;-0.27;79.32;99252.28;5044765;28;8874;-80
2023/03/16 01:10:21;;;;;;;;;5.40;4.40;;;;;-0.30;80.12;99262.56;5044514;28;8902;-80
2023/03/16 01:12:54;;;;;;;;;6.60;6.20;;;;;-0.41;80.28;99252.00;5043126;28;8888;-80
2023/03/16 01:15:24;;;;;;;;;2.80;1.20;;;;;-0.43;80.49;99263.16;5026991;28;8860;-80
2023/03/16 01:17:53;;;;;;;;;4.20;4.20;;;;;-0.37;79.86;99255.53;5027485;28;8989;-80
2023/03/16 01:20:25;;;;;;;;;5.20;5.20;;;;;-0.36;80.00;99262.44;5027720;28;8867;-80
2023/03/16 01:22:54;;;;;;;;;9.00;8.60;;;;;-0.31;79.74;99268.56;5011155;28;8856;-80
2023/03/16 01:25:24;;;;;;;;;7.80;6.20;;;;;-0.34;79.67;99268.50;5043816;28;9023;-80
2023/03/16 01:27:53;;;;;;;;;5.60;4.40;;;;;-0.39;79.18;99260.69;5029023;28;8852;-78
2023/03/16 01:30:22;;;;;;;;;7.60;7.00;;;;;-0.26;79.35;99263.47;5043425;28;8869;-81
2023/03/16 01:32:51;;;;;;;;;8.00;5.20;;;;;-0.35;78.66;99259.00;5065186;28;8890;-79
2023/03/16 01:35:21;;;;;;;;;7.60;7.60;;;;;-0.47;79.23;99274.28;5014358;28;8903;-80
2023/03/16 01:37:52;;;;;;;;;8.80;7.40;;;;;-0.26;79.39;99272.09;5064745;28;8876;-79
2023/03/16 01:40:25;;;;;;;;;6.40;6.40;;;;;-0.26;78.94;99258.31;5048584;28;8840;-80
2023/03/16 01:43:01;;;;;;;;;8.20;5.40;;;;;-0.38;78.88;99265.00;5064698;28;8845;-79
2023/03/16 01:46:22;;;;;;;;;7.60;4.80;;;;;-0.21;79.52;99265.31;5047296;28;8829;-77
2023/03/16 01:49:05;;;;;;;;;9.00;8.20;;;;;-0.43;79.88;99274.34;5046747;28;8834;-78
2023/03/16 01:51:41;;;;;;;;;7.00;7.00;;;;;-0.56;79.11;99269.78;5013587;28;8992;-79
2023/03/16 01:54:19;;;;;;;;;5.20;4.80;;;;;-0.52;79.59;99269.03;5046259;28;8943;-79
2023/03/16 01:56:56;;;;;;;;;7.40;7.00;;;;;-0.51;79.28;99278.50;5013540;28;9624;-80
2023/03/16 01:59:30;;;;;;;;;6.00;4.60;;;;;-0.61;79.60;99281.78;5029948;28;8842;-78
2023/03/16 02:02:00;;;;;;;;;9.20;5.20;;;;;-0.50;79.85;99277.69;5043311;28;8892;-80
2023/03/16 02:04:52;;;;;;;;;9.20;7.00;;;;;-0.37;79.23;99263.28;5025907;28;9717;-79
2023/03/16 02:07:25;;;;;;;;;9.00;7.40;;;;;-0.28;79.02;99272.91;5026392;28;8852;-78
2023/03/16 02:09:59;;;;;;;;;7.00;5.20;;;;;-0.47;78.77;99267.41;4986552;28;8990;-78
2023/03/16 02:12:29;;;;;;;;;10.60;8.40;;;;;-0.48;78.39;99272.53;4975876;28;8985;-78
2023/03/16 02:15:01;;;;;;;;;7.80;7.40;;;;;-0.39;78.44;99286.50;5006322;28;8902;-78
2023/03/16 02:17:32;;;;;;;;;6.00;6.00;;;;;-0.24;78.79;99285.91;4990055;28;8842;-78
2023/03/16 02:20:24;;;;;;;;;5.40;5.40;;;;;-0.33;77.99;99284.03;5021775;28;8850;-77
2023/03/16 02:22:54;;;;;;;;;7.40;6.20;;;;;-0.29;78.83;99282.38;5030720;28;8970;-80
2023/03/16 02:25:35;;;;;;;;;4.00;4.00;;;;;-0.32;77.91;99285.75;5042511;28;9563;-78
2023/03/16 02:28:15;;;;;;;;;3.80;3.60;;;;;-0.16;77.68;99294.69;4969240;28;8896;-78
2023/03/16 02:30:48;;;;;;;;;4.60;3.00;;;;;0.15;77.37;99294.34;4954157;28;8892;-77
2023/03/16 02:33:18;;;;;;;;;7.60;7.60;;;;;-0.14;76.85;99305.91;4989188;28;8897;-79
2023/03/16 02:35:47;;;;;;;;;5.40;4.40;;;;;0.07;76.16;99295.09;5000705;28;8890;-78
2023/03/16 02:38:16;;;;;;;;;5.00;4.60;;;;;0.20;76.15;99292.72;5006743;28;8866;-78
2023/03/16 02:41:00;;;;;;;;;7.20;5.00;;;;;0.45;75.85;99294.00;5007136;28;8854;-78
2023/03/16 02:43:34;;;;;;;;;4.00;4.00;;;;;0.80;75.17;99301.41;4986737;28;9461;-79
2023/03/16 02:46:13;;;;;;;;;6.40;5.40;;;;;1.00;75.07;99304.31;4986450;28;9736;-78
2023/03/16 02:48:47;;;;;;;;;3.20;1.80;;;;;1.14;73.95;99297.59;5001058;28;8861;-79
2023/03/16 02:51:16;;;;;;;;;6.20;3.60;;;;;1.02;72.11;99297.44;5002331;28;8868;-78
2023/03/16 02:53:46;;;;;;;;;3.60;3.20;;;;;1.23;71.68;99300.31;4985735;28;10118;-78
2023/03/16 02:56:15;;;;;;;;;1.80;1.80;;;;;1.32;72.35;99293.53;5009919;28;8929;-79
2023/03/16 02:58:44;;;;;;;;;2.40;1.80;;;;;1.40;70.00;99286.72;5011518;28;8921;-79
2023/03/16 03:01:19;;;;;;;;;4.00;2.40;;;;;1.11;67.94;99291.53;5009147;28;8962;-79
2023/03/16 03:03:48;;;;;;;;;4.40;4.40;;;;;1.22;70.54;99292.53;5025393;28;8852;-78
2023/03/16 03:06:16;;;;;;;;;4.00;1.80;;;;;1.29;68.58;99302.09;5022105;28;8880;-78
2023/03/16 03:08:46;;;;;;;;;2.00;1.20;;;;;1.10;68.84;99303.59;4993819;28;8864;-78
2023/03/16 03:11:15;;;;;;;;;4.00;4.00;;;;;1.12;69.44;99308.78;5045352;28;8875;-79
2023/03/16 03:13:44;;;;;;;;;2.00;2.00;;;;;1.07;69.68;99300.09;5045006;28;8885;-79
2023/03/16 03:16:20;;;;;;;;;2.40;2.00;;;;;0.72;68.86;99313.38;5047411;28;9651;-79
2023/03/16 03:18:52;;;;;;;;;1.60;1.60;;;;;0.58;69.89;99320.94;5041729;28;9586;-78
2023/03/16 03:21:22;;;;;;;;;3.00;1.80;;;;;0.39;69.66;99322.34;5025349;28;8871;-79
2023/03/16 03:23:52;;;;;;;;;4.00;4.00;;;;;0.21;70.66;99328.06;5008584;28;9715;-77
2023/03/16 03:26:21;;;;;;;;;4.00;4.00;;;;;0.12;71.36;99326.16;5019579;28;8884;-78
2023/03/16 03:28:51;;;;;;;;;8.40;7.20;;;;;-0.14;70.81;99333.47;5063019;28;8946;-80
2023/03/16 03:31:22;;;;;;;;;8.60;8.40;;;;;0.00;71.18;99334.56;5062756;28;8869;-78
2023/03/16 03:33:52;;;;;;;;;15.00;15.00;;;;;0.06;72.17;99331.22;5029897;28;8872;-78
2023/03/16 03:36:22;;;;;;;;;18.75;16.00;;;;;0.01;71.73;99332.84;5005108;28;8921;-79
2023/03/16 03:38:53;;;;;;;;;14.50;14.50;;;;;0.21;72.25;99331.50;4973558;28;9617;-79
2023/03/16 03:41:22;;;;;;;;;14.40;13.60;;;;;0.11;70.66;99336.50;4976682;28;8957;-79
2023/03/16 03:43:53;;;;;;;;;14.25;11.00;;;;;0.03;71.66;99334.66;5028983;28;9629;-79
2023/03/16 03:46:24;;;;;;;;;16.75;15.00;;;;;-0.07;71.62;99344.78;5029266;28;8856;-78
2023/03/16 03:48:53;;;;;;;;;12.50;12.50;;;;;-0.05;71.53;99349.13;5045513;28;8870;-78
2023/03/16 03:51:22;;;;;;;;;14.00;13.00;;;;;-0.05;71.54;99343.94;5045544;28;8935;-79
2023/03/16 03:54:03;;;;;;;;;17.75;15.25;;;;;0.02;71.64;99340.63;5012433;28;8896;-80
2023/03/16 03:56:40;;;;;;;;;15.25;14.75;;;;;0.17;71.89;99352.97;5028951;28;8840;-79
2023/03/16 03:59:13;;;;;;;;;15.25;12.75;;;;;0.05;70.74;99356.22;5044039;28;8887;-78
2023/03/16 04:02:02;;;;;;;;;12.50;10.00;;;;;0.07;71.01;99349.38;5028676;28;9033;-78
2023/03/16 04:04:45;;;;;;;;;9.25;7.00;;;;;0.06;71.51;99357.94;5029118;28;8848;-79
2023/03/16 04:07:15;;;;;;;;;9.50;8.00;;;;;-0.06;70.61;99370.66;4983955;28;9708;-79
2023/03/16 04:09:45;;;;;;;;;10.50;10.00;;;;;0.05;70.25;99369.13;5072852;28;8876;-78
2023/03/16 04:12:32;;;;;;;;;12.75;12.75;;;;;0.00;71.12;99373.34;5049948;28;8857;-79
2023/03/16 04:15:02;;;;;;;;;13.00;13.00;;;;;-0.06;70.83;99373.22;5048999;28;8880;-79
2023/03/16 04:17:38;;;;;;;;;12.00;12.00;;;;;0.02;71.42;99376.81;5066238;28;8860;-79
2023/03/16 04:20:13;;;;;;;;;13.40;13.40;;;;;-0.11;70.88;99387.75;5083341;28;8917;-79
2023/03/16 04:22:45;;;;;;;;;21.50;17.00;;;;;0.07;71.07;99382.97;5083213;28;8974;-78
2023/03/16 04:25:17;;;;;;;;;13.25;13.25;;;;;0.16;70.87;99386.53;5086384;28;8856;-78
2023/03/16 04:27:47;;;;;;;;;17.25;17.25;;;;;0.17;70.75;99385.72;5066955;28;8995;-78
2023/03/16 04:30:18;;;;;;;;;12.00;10.50;;;;;0.01;70.11;99390.59;5033354;28;8883;-79
2023/03/16 04:32:53;;;;;;;;;11.00;11.00;;;;;0.12;69.98;99389.91;5048664;28;8864;-77
2023/03/16 04:35:23;;;;;;;;;9.50;8.25;;;;;0.12;69.88;99401.13;5050939;28;8860;-77
2023/03/16 04:37:55;;;;;;;;;19.75;13.25;;;;;0.14;69.41;99401.16;5066311;28;8845;-79
2023/03/16 04:40:32;;;;;;;;;13.40;11.40;;;;;0.14;69.41;99402.06;5055878;28;8866;-79
2023/03/16 04:43:10;;;;;;;;;13.25;10.25;;;;;0.08;69.73;99405.38;5063074;28;8855;-79
2023/03/16 04:45:40;;;;;;;;;16.50;11.25;;;;;0.14;69.94;99402.06;5012864;28;8937;-78
2023/03/16 04:48:11;;;;;;;;;11.40;9.40;;;;;0.11;69.21;99401.97;5046194;28;9005;-78
2023/03/16 04:50:40;;;;;;;;;6.20;6.20;;;;;0.12;69.21;99411.47;5045267;28;8848;-78
2023/03/16 04:53:09;;;;;;;;;13.75;12.75;;;;;0.03;69.10;99406.13;5062357;28;8878;-78
2023/03/16 04:55:38;;;;;;;;;10.00;10.00;;;;;0.00;69.24;99417.28;5045582;28;9621;-79
2023/03/16 04:58:07;;;;;;;;;11.40;11.00;;;;;0.03;69.59;99422.50;5044044;28;8841;-78
2023/03/16 05:00:39;;;;;;;;;12.25;12.00;;;;;0.15;69.31;99421.00;5015662;28;8869;-78
2023/03/16 05:03:23;;;;;;;;;13.00;12.50;;;;;0.04;68.98;99424.22;5064845;28;8856;-78
2023/03/16 05:05:52;;;;;;;;;11.20;10.80;;;;;0.13;69.23;99430.44;5042823;28;8843;-78
2023/03/16 05:08:22;;;;;;;;;14.80;14.40;;;;;0.12;69.58;99416.63;5010616;28;8875;-78
2023/03/16 05:10:56;;;;;;;;;20.75;19.25;;;;;0.15;69.17;99429.63;5011066;28;8860;-77
2023/03/16 05:13:26;;;;;;;;;38.25;35.00;;;;;0.20;69.97;99428.00;5043803;28;8938;-79
2023/03/16 05:15:59;;;;;;;;;42.50;38.50;;;;;0.14;68.75;99433.06;5043842;28;8864;-79
2023/03/16 05:18:33;;;;;;;;;29.00;24.75;;;;;0.14;68.71;99432.16;5010659;28;8872;-79
2023/03/16 05:21:03;;;;;;;;;30.25;29.25;;;;;0.02;68.95;99435.41;5030575;28;8889;-76
2023/03/16 05:23:43;;;;;;;;;27.75;25.75;;;;;0.17;69.10;99438.28;5042677;28;8925;-79
2023/03/16 05:26:13;;;;;;;;;28.75;27.75;;;;;0.12;69.16;99445.06;5026878;28;8864;-78
2023/03/16 05:28:42;;;;;;;;;20.00;19.75;;;;;0.21;69.47;99439.22;5010149;28;8910;-78
2023/03/16 05:31:14;;;;;;;;;17.25;14.00;;;;;0.06;69.54;99447.53;5027303;28;8852;-78
2023/03/16 05:33:49;;;;;;;;;16.50;13.25;;;;;0.19;69.32;99456.41;5057313;28;8851;-78
2023/03/16 05:36:21;;;;;;;;;10.00;10.00;;;;;0.26;68.88;99441.03;5013486;28;8944;-78
2023/03/16 05:38:53;;;;;;;;;12.60;11.80;;;;;0.49;68.91;99448.34;5048029;28;8847;-78
2023/03/16 05:41:48;;;;;;;;;13.00;12.50;;;;;0.39;69.07;99464.56;5050024;28;8897;-78
2023/03/16 05:44:37;;;;;;;;;11.50;11.50;;;;;0.33;69.86;99460.13;5033490;28;8909;-79
2023/03/16 05:47:28;;;;;;;;;15.25;15.25;;;;;0.40;69.17;99456.81;5024471;28;8841;-79
2023/03/16 05:49:59;;;;;;;;;13.00;11.00;;;;;0.24;70.01;99470.31;5010367;28;8895;-78
2023/03/16 05:52:36;;;;;;;;;16.50;16.00;;;;;0.59;69.80;99468.34;5010143;28;8872;-78
2023/03/16 05:55:14;;;;;;;;;13.50;11.00;;;;;0.40;70.03;99466.28;4992846;28;9006;-78
2023/03/16 05:57:44;;;;;;;;;20.25;16.00;;;;;0.33;70.50;99475.66;5024665;28;8844;-78
2023/03/16 06:00:15;;;;;;;;;15.50;12.25;;;;;0.45;69.92;99472.44;5006463;28;8867;-79
2023/03/16 06:02:51;;;;;;;;;15.00;14.00;;;;;0.51;69.77;99475.13;5021452;28;9028;-79
2023/03/16 06:05:24;;;;;;;;;18.00;12.00;;;;;0.28;69.86;99472.97;5000231;28;8913;-78
2023/03/16 06:07:53;;;;;;;;;19.25;15.75;;;;;0.25;70.16;99482.38;5006739;28;8847;-77
2023/03/16 06:10:25;;;;;;;;;13.75;13.75;;;;;0.31;69.89;99479.91;5006950;28;8867;-78
2023/03/16 06:12:54;;;;;;;;;16.25;15.75;;;;;0.53;70.01;99482.91;4990217;28;8843;-78
2023/03/16 06:15:25;;;;;;;;;14.75;12.50;;;;;0.64;68.90;99482.25;4990493;28;8915;-78
2023/03/16 06:17:56;;;;;;;;;17.00;14.60;;;;;0.32;68.51;99481.66;4987757;28;8855;-78
2023/03/16 06:20:27;;;;;;;;;18.00;16.50;;;;;0.44;69.27;99502.59;4986839;28;8861;-78
2023/03/16 06:22:57;;;;;;;;;16.25;15.75;;;;;0.47;68.70;99496.59;4986837;28;8856;-78
2023/03/16 06:25:27;;;;;;;;;15.25;13.50;;;;;0.46;68.61;99493.16;5001295;28;9656;-78
2023/03/16 06:27:56;;;;;;;;;19.00;14.00;;;;;0.32;69.34;99506.66;5006041;28;8990;-77
2023/03/16 06:30:26;;;;;;;;;18.75;13.75;;;;;0.25;68.77;99513.38;4972570;28;8866;-78
2023/03/16 06:32:55;;;;;;;;;15.25;14.00;;;;;0.39;68.83;99508.50;5025646;28;8875;-78
2023/03/16 06:35:27;;;;;;;;;19.50;17.50;;;;;0.03;67.82;99518.13;4993071;28;8889;-78
2023/03/16 06:38:08;;;;;;;;;22.25;21.50;;;;;0.32;68.67;99519.56;5010590;28;8866;-78
2023/03/16 06:40:51;;;;;;;;;21.75;18.25;;;;;0.29;66.63;99530.69;5006084;28;8881;-77
2023/03/16 06:43:23;;;;;;;;;22.67;21.00;;;;;0.24;65.59;99528.03;4989948;28;8884;-77
2023/03/16 06:45:52;;;;;;;;;19.00;19.00;;;;;0.10;66.16;99523.41;4970170;28;8865;-78
2023/03/16 06:48:23;;;;;;;;;26.75;24.50;;;;;0.23;65.63;99515.94;4986423;28;8952;-78
2023/03/16 06:50:54;;;;;;;;;14.00;13.25;;;;;0.38;64.63;99528.31;4967648;28;8870;-77
2023/03/16 06:53:26;;;;;;;;;28.75;28.00;;;;;0.25;64.94;99526.31;4942940;28;8916;-77
2023/03/16 06:55:57;;;;;;;;;22.25;20.00;;;;;0.28;65.27;99524.66;4987284;28;8913;-78
2023/03/16 06:58:28;;;;;;;;;19.25;16.25;;;;;0.27;65.42;99529.81;4984741;28;8873;-79
2023/03/16 07:00:56;;;;;;;;;31.00;28.75;;;;;0.42;66.03;99531.84;5018118;28;9690;-80
2023/03/16 07:03:26;;;;;;;;;28.00;25.50;;;;;0.47;64.77;99531.06;5021641;28;8857;-78
2023/03/16 07:06:02;;;;;;;;;23.00;21.25;;;;;0.54;65.57;99534.66;5020717;28;8876;-80
2023/03/16 07:08:33;;;;;;;;;27.25;24.75;;;;;0.77;64.83;99534.25;5005083;28;8861;-79
2023/03/16 07:11:02;;;;;;;;;27.75;23.50;;;;;0.93;63.99;99522.44;4988456;28;8970;-79
2023/03/16 07:13:31;;;;;;;;;23.75;17.75;;;;;0.84;63.55;99538.66;5004784;28;8869;-78
2023/03/16 07:16:00;;;;;;;;;22.00;18.75;;;;;0.71;62.08;99544.44;5005434;28;8877;-79
2023/03/16 07:18:30;;;;;;;;;22.00;20.75;;;;;0.98;60.82;99534.66;4941194;28;8836;-78
2023/03/16 07:21:02;;;;;;;;;20.50;19.75;;;;;0.91;58.22;99542.25;5022645;28;9634;-77
2023/03/16 07:23:32;;;;;;;;;20.00;17.25;;;;;1.22;60.86;99536.78;5008880;28;8857;-77
2023/03/16 07:26:07;;;;;;;;;19.25;18.00;;;;;1.47;58.61;99544.09;5008857;28;8873;-78
2023/03/16 07:28:40;;;;;;;;;20.50;18.75;;;;;1.69;57.70;99547.88;4982786;28;8861;-80
2023/03/16 07:31:09;;;;;;;;;21.00;19.50;;;;;1.94;57.24;99549.13;4996087;28;8859;-77
2023/03/16 07:33:41;;;;;;;;;24.00;20.75;;;;;2.37;57.40;99547.97;5042699;28;8846;-80
2023/03/16 07:36:16;;;;;;;;;13.75;11.50;;;;;1.70;57.12;99560.00;5055629;28;8879;-78
2023/03/16 07:38:52;;;;;;;;;10.50;7.50;;;;;1.37;54.71;99556.00;5046254;28;8887;-79
2023/03/16 07:41:21;;;;;;;;;21.25;17.25;;;;;1.59;55.07;99571.06;5046271;28;8841;-79
2023/03/16 07:43:50;;;;;;;;;15.00;14.00;;;;;1.07;56.31;99577.06;5079520;28;8845;-80
2023/03/16 07:46:24;;;;;;;;;21.00;19.25;;;;;1.35;56.55;99570.66;5063001;28;8869;-78
2023/03/16 07:49:03;;;;;;;;;20.20;18.40;;;;;1.20;56.46;99579.03;5061540;28;8874;-80
2023/03/16 07:51:36;;;;;;;;;19.00;15.25;;;;;1.71;58.55;99579.88;5062107;28;8861;-82
2023/03/16 07:54:05;;;;;;;;;19.75;18.00;;;;;1.72;57.39;99576.44;5080217;28;8845;-79
2023/03/16 07:56:36;;;;;;;;;17.25;13.50;;;;;1.71;55.51;99570.38;5047269;28;9653;-78
2023/03/16 07:59:28;;;;;;;;;18.25;16.50;;;;;1.33;56.86;99588.78;5067651;28;8845;-81
2023/03/16 08:01:57;;;;;;;;;16.75;16.75;;;;;1.55;55.75;99571.00;5030201;28;8860;-76
2023/03/16 08:04:28;;;;;;;;;19.50;17.50;;;;;1.91;57.27;99577.59;5029152;28;8848;-80
2023/03/16 08:07:00;;;;;;;;;19.00;17.25;;;;;2.05;56.02;99585.56;5065837;28;8905;-79
2023/03/16 08:09:44;;;;;;;;;21.75;19.50;;;;;2.21;55.42;99588.38;5048318;28;8882;-81
2023/03/16 08:12:18;;;;;;;;;18.75;17.00;;;;;2.49;56.19;99568.00;5048486;28;9637;-77
2023/03/16 08:14:48;;;;;;;;;24.50;23.25;;;;;2.58;56.22;99580.19;5031696;28;8945;-77
2023/03/16 08:17:22;;;;;;;;;25.75;19.00;;;;;2.15;56.33;99584.84;5027918;28;8987;-79
2023/03/16 08:19:51;;;;;;;;;21.00;17.40;;;;;2.25;55.00;99588.44;5045366;28;8846;-80
2023/03/16 08:22:24;;;;;;;;;23.00;18.75;;;;;1.78;55.77;99587.75;5028773;28;8900;-79
2023/03/16 08:24:54;;;;;;;;;20.50;18.50;;;;;1.59;55.93;99604.72;5044807;28;8838;-79
2023/03/16 08:27:28;;;;;;;;;24.50;17.00;;;;;1.76;56.19;99605.00;5032101;28;8984;-80
2023/03/16 08:30:03;;;;;;;;;21.50;20.25;;;;;1.90;56.94;99596.56;5048141;28;8861;-79
2023/03/16 08:32:34;;;;;;;;;17.25;16.75;;;;;2.28;55.48;99602.31;5031918;28;8869;-80
2023/03/16 08:35:04;;;;;;;;;24.00;21.50;;;;;2.20;56.96;99598.72;5016054;28;8880;-79
2023/03/16 08:37:36;;;;;;;;;15.75;15.50;;;;;2.65;55.39;99592.41;5043593;28;8890;-80
2023/03/16 08:40:09;;;;;;;;;18.75;16.75;;;;;3.11;54.36;99595.50;5044990;28;8991;-78
2023/03/16 08:42:40;;;;;;;;;16.80;15.40;;;;;2.94;50.88;99592.75;4979961;28;8927;-78
2023/03/16 08:45:12;;;;;;;;;20.20;19.00;;;;;2.78;54.60;99594.28;5011613;28;8979;-79
2023/03/16 08:47:45;;;;;;;;;7.40;5.80;;;;;2.92;54.35;99601.34;5014920;28;9697;-79
2023/03/16 08:50:18;;;;;;;;;19.80;16.40;;;;;3.08;50.24;99598.06;5032133;28;8985;-79
2023/03/16 08:52:49;;;;;;;;;18.60;16.60;;;;;3.27;52.15;99601.72;5031687;28;8862;-79
2023/03/16 08:55:26;;;;;;;;;17.20;14.80;;;;;3.08;53.06;99590.28;5048103;28;8842;-79
2023/03/16 08:57:55;;;;;;;;;15.20;15.20;;;;;3.39;52.39;99593.16;5025883;28;8922;-80
2023/03/16 09:00:25;;;;;;;;;22.40;19.80;;;;;3.22;50.70;99600.78;5049203;28;8876;-80
2023/03/16 09:02:55;;;;;;;;;16.20;14.20;;;;;2.80;51.87;99602.09;5065984;28;8981;-79
2023/03/16 09:05:24;;;;;;;;;15.00;15.00;;;;;3.46;52.63;99600.19;5050437;28;8887;-80
2023/03/16 09:07:55;;;;;;;;;19.40;16.20;;;;;3.52;52.91;99602.84;5082976;28;8895;-80
2023/03/16 09:10:26;;;;;;;;;15.60;13.80;;;;;3.67;52.98;99603.84;5049563;28;8844;-79
2023/03/16 09:12:55;;;;;;;;;11.20;9.20;;;;;3.87;52.36;99606.59;5016043;28;8942;-78
2023/03/16 09:15:25;;;;;;;;;13.00;11.80;;;;;3.90;50.44;99598.81;5048967;28;8922;-80
2023/03/16 09:17:56;;;;;;;;;15.40;13.40;;;;;4.04;50.20;99599.78;5065661;28;8880;-78
2023/03/16 09:20:26;;;;;;;;;14.00;13.00;;;;;3.86;51.13;99589.25;5050229;28;9053;-80
2023/03/16 09:22:59;;;;;;;;;12.60;12.00;;;;;4.16;50.49;99609.38;5082665;28;8848;-80
2023/03/16 09:25:29;;;;;;;;;19.60;15.20;;;;;4.76;51.66;99604.47;5032451;28;8857;-79
2023/03/16 09:27:59;;;;;;;;;18.20;14.00;;;;;5.18;51.38;99599.38;5065327;28;8869;-80
2023/03/16 09:30:29;;;;;;;;;5.60;5.20;;;;;5.42;49.13;99593.38;5065244;28;8942;-79
2023/03/16 09:32:58;;;;;;;;;11.60;11.60;;;;;5.31;48.84;99595.97;5065378;28;8856;-79
2023/03/16 09:35:28;;;;;;;;;12.60;10.20;;;;;5.51;48.36;99591.66;5048934;28;8867;-79
2023/03/16 09:37:59;;;;;;;;;17.80;17.20;;;;;5.65;48.27;99591.63;5049566;28;8891;-81
2023/03/16 09:40:38;;;;;;;;;13.40;11.60;;;;;5.70;46.56;99602.94;5050327;28;8942;-81
2023/03/16 09:43:21;;;;;;;;;13.20;12.20;;;;;5.96;45.81;99603.78;5082894;28;8970;-80
2023/03/16 09:45:59;;;;;;;;;11.00;10.60;;;;;5.08;44.36;99612.41;5051477;28;8938;-77
2023/03/16 09:48:32;;;;;;;;;13.40;13.00;;;;;5.12;45.45;99614.13;5032860;28;8903;-79
2023/03/16 09:51:06;;;;;;;;;19.00;14.40;;;;;5.49;46.46;99610.75;5031674;28;8841;-79
2023/03/16 09:53:39;;;;;;;;;12.80;10.60;;;;;5.57;45.20;99608.13;5050001;28;9517;-80
2023/03/16 09:56:12;;;;;;;;;13.80;13.40;;;;;5.71;46.33;99612.50;5081786;28;9006;-79
2023/03/16 09:58:41;;;;;;;;;13.20;9.80;;;;;5.66;45.71;99614.25;5048592;28;8876;-78
2023/03/16 10:01:21;;;;;;;;;15.00;11.40;;;;;5.78;44.75;99618.59;5048717;28;8929;-77
2023/03/16 10:04:02;;;;;;;;;11.00;11.00;;;;;5.81;44.20;99621.22;5048460;28;8991;-79
2023/03/16 10:06:44;;;;;;;;;17.00;14.80;;;;;6.08;44.58;99614.22;5064439;28;9032;-79
2023/03/16 10:09:27;;;;;;;;;15.00;13.00;;;;;6.29;44.73;99614.16;5064840;28;8829;-79
2023/03/16 10:12:06;;;;;;;;;14.60;11.80;;;;;6.11;44.69;99609.88;5049617;28;8848;-79
2023/03/16 10:14:45;;;;;;;;;10.80;10.80;;;;;5.84;39.98;99633.38;5046783;28;8862;-79
2023/03/16 10:17:18;;;;;;;;;14.00;13.60;;;;;5.43;43.10;99613.34;5030396;28;8889;-79
2023/03/16 10:19:53;;;;;;;;;13.40;13.40;;;;;5.85;44.35;99615.13;5046252;28;8874;-79
2023/03/16 10:22:25;;;;;;;;;11.80;10.00;;;;;5.98;42.12;99617.69;5014120;28;8858;-78
2023/03/16 10:25:11;;;;;;;;;14.60;11.00;;;;;6.00;41.54;99595.06;5046952;28;8931;-79
2023/03/16 10:27:45;;;;;;;;;12.80;12.80;;;;;5.62;42.87;99625.53;5046493;28;8881;-79
2023/03/16 10:30:24;;;;;;;;;10.80;10.40;;;;;6.06;42.15;99616.81;5046764;28;8920;-78
2023/03/16 10:32:54;;;;;;;;;11.80;11.80;;;;;5.59;43.29;99616.84;5046588;28;8964;-78
2023/03/16 10:35:35;;;;;;;;;16.60;14.40;;;;;5.43;42.46;99622.03;5047070;28;8838;-79
2023/03/16 10:38:08;;;;;;;;;11.00;9.60;;;;;5.10;41.16;99617.63;5046426;28;8846;-78
2023/03/16 10:40:39;;;;;;;;;10.00;10.00;;;;;5.11;41.54;99633.25;5013516;28;8861;-80
2023/03/16 10:43:13;;;;;;;;;11.00;10.60;;;;;5.45;42.50;99617.72;5013004;28;8854;-78
2023/03/16 10:45:45;;;;;;;;;14.00;14.00;;;;;5.90;44.07;99612.50;5045680;28;8849;-79
2023/03/16 10:48:17;;;;;;;;;14.00;13.00;;;;;6.25;43.07;99612.44;5045252;28;8869;-78
2023/03/16 10:50:51;;;;;;;;;15.80;11.60;;;;;6.54;41.64;99614.09;5029072;28;8976;-79
2023/03/16 10:53:25;;;;;;;;;15.00;14.40;;;;;6.77;41.98;99616.63;5029467;28;8877;-79
2023/03/16 10:56:00;;;;;;;;;12.20;12.20;;;;;7.04;42.40;99614.78;5048223;28;8977;-78
2023/03/16 10:58:32;;;;;;;;;16.60;15.80;;;;;7.09;42.37;99603.41;5079979;28;9090;-79
2023/03/16 11:01:02;;;;;;;;;12.00;11.20;;;;;6.80;40.95;99608.78;5046995;28;8876;-79
2023/03/16 11:03:40;;;;;;;;;14.00;13.00;;;;;7.25;39.57;99603.34;5048390;28;8844;-78
2023/03/16 11:06:21;;;;;;;;;11.60;11.60;;;;;7.17;36.57;99616.44;5048734;28;8959;-78
2023/03/16 11:08:52;;;;;;;;;11.00;11.00;;;;;7.16;39.98;99598.19;5048781;28;8861;-78
2023/03/16 11:11:27;;;;;;;;;18.20;11.80;;;;;7.34;38.19;99600.66;5048039;28;8880;-78
2023/03/16 11:14:00;;;;;;;;;10.00;8.20;;;;;7.44;38.57;99593.63;5030796;28;8949;-78
2023/03/16 11:16:37;;;;;;;;;9.00;8.60;;;;;7.77;37.46;99597.69;5063511;28;8857;-77
2023/03/16 11:19:17;;;;;;;;;16.40;14.00;;;;;6.85;37.05;99600.91;5047622;28;8915;-78
2023/03/16 11:21:54;;;;;;;;;15.40;13.00;;;;;6.89;38.61;99603.53;5030254;28;8864;-78
2023/03/16 11:24:30;;;;;;;;;11.60;11.00;;;;;6.67;41.66;99599.25;5013780;28;8876;-79
2023/03/16 11:27:07;;;;;;;;;12.60;12.40;;;;;6.99;39.83;99606.13;5080419;28;9745;-78
2023/03/16 11:29:50;;;;;;;;;17.00;16.20;;;;;7.41;40.09;99604.97;5068562;28;8841;-79
2023/03/16 11:32:24;;;;;;;;;14.20;12.00;;;;;7.55;39.42;99586.56;5053651;28;8853;-79
2023/03/16 11:34:53;;;;;;;;;20.20;19.40;;;;;7.77;39.99;99589.00;5047313;28;8841;-79
2023/03/16 11:37:35;;;;;;;;;9.80;8.00;;;;;7.96;37.12;99595.78;5047310;28;9618;-79
2023/03/16 11:40:18;;;;;;;;;10.20;9.80;;;;;7.98;36.87;99607.09;5046806;28;9007;-79
2023/03/16 11:43:01;;;;;;;;;12.60;12.20;;;;;7.59;34.16;99606.59;5063528;28;8911;-79
2023/03/16 11:45:38;;;;;;;;;8.20;7.60;;;;;7.06;36.00;99594.72;5029278;28;8868;-78
2023/03/16 11:48:28;;;;;;;;;7.40;6.80;;;;;7.72;35.40;99596.00;5046551;28;8861;-77
2023/03/16 11:51:05;;;;;;;;;17.60;14.60;;;;;8.02;34.50;99592.25;5046821;28;8868;-77
2023/03/16 11:54:08;;;;;;;;;6.80;6.80;;;;;7.79;35.82;99597.69;5017423;28;8850;-77
2023/03/16 11:56:43;;;;;;;;;8.40;7.60;;;;;7.35;36.59;99606.75;5047142;28;8884;-78
2023/03/16 11:59:41;;;;;;;;;15.20;13.60;;;;;7.27;35.33;99606.81;5044991;28;8874;-78
2023/03/16 12:02:45;;;;;;;;;18.80;17.00;;;;;6.49;36.65;99590.63;5000774;28;8865;-78
2023/03/16 12:05:33;;;;;;;;;11.60;10.80;;;;;7.42;36.35;99593.63;5065547;28;8868;-79